createdAt,value
2023-01-22T00:00:11.299Z,808.17
2023-01-22T00:01:11.295Z,808.16
2023-01-22T00:02:11.308Z,808.17
2023-01-22T00:03:11.299Z,808.14
2023-01-22T00:04:11.285Z,808.15
2023-01-22T00:05:11.274Z,808.13
2023-01-22T00:06:11.271Z,808.11
2023-01-22T00:07:11.268Z,808.05
2023-01-22T00:08:11.268Z,808.11
2023-01-22T00:09:11.264Z,808.12
2023-01-22T00:10:11.270Z,808.10
2023-01-22T00:11:11.252Z,808.12
2023-01-22T00:12:11.251Z,808.11
2023-01-22T00:13:11.245Z,808.10
2023-01-22T00:14:11.295Z,808.14
2023-01-22T00:15:11.236Z,808.10
2023-01-22T00:16:11.388Z,808.12
2023-01-22T00:17:11.231Z,808.11
2023-01-22T00:18:11.233Z,808.14
2023-01-22T00:19:11.246Z,808.08
2023-01-22T00:20:11.221Z,808.06
2023-01-22T00:21:11.213Z,808.08
2023-01-22T00:22:11.213Z,808.09
2023-01-22T00:23:11.217Z,808.04
2023-01-22T00:24:11.207Z,808.05
2023-01-22T00:25:11.202Z,808.07
2023-01-22T00:26:11.209Z,808.05
2023-01-22T00:27:11.195Z,808.06
2023-01-22T00:28:11.213Z,808.07
2023-01-22T00:29:11.185Z,808.03
2023-01-22T00:30:11.185Z,808.03
2023-01-22T00:31:11.346Z,807.98
2023-01-22T00:32:11.314Z,807.99
2023-01-22T00:33:11.198Z,808.00
2023-01-22T00:34:11.172Z,808.00
2023-01-22T00:35:11.189Z,808.00
2023-01-22T00:36:11.166Z,808.02
2023-01-22T00:37:11.157Z,808.04
2023-01-22T00:38:11.156Z,808.01
2023-01-22T00:39:11.148Z,808.00
2023-01-22T00:40:11.147Z,807.92
2023-01-22T00:41:11.142Z,807.96
2023-01-22T00:42:11.148Z,807.97
2023-01-22T00:43:11.136Z,807.94
2023-01-22T00:44:11.136Z,807.95
2023-01-22T00:45:11.127Z,807.93
2023-01-22T00:46:11.223Z,807.92
2023-01-22T00:47:11.122Z,807.96
2023-01-22T00:48:11.120Z,807.95
2023-01-22T00:49:11.111Z,807.91
2023-01-22T00:50:11.122Z,807.91
2023-01-22T00:51:11.146Z,807.93
2023-01-22T00:52:11.111Z,807.96
2023-01-22T00:53:11.099Z,807.94
2023-01-22T00:54:11.100Z,808.00
2023-01-22T00:55:11.099Z,807.98
2023-01-22T00:56:11.086Z,807.93
2023-01-22T00:57:11.086Z,807.93
2023-01-22T00:58:11.080Z,807.92
2023-01-22T00:59:11.079Z,807.96
2023-01-22T01:00:11.084Z,807.95
2023-01-22T01:01:11.117Z,807.99
2023-01-22T01:02:11.160Z,808.00
2023-01-22T01:03:11.065Z,808.01
2023-01-22T01:04:11.065Z,808.04
2023-01-22T01:05:11.056Z,808.02
2023-01-22T01:06:11.049Z,808.02
2023-01-22T01:07:11.047Z,808.00
2023-01-22T01:08:11.148Z,808.03
2023-01-22T01:09:11.043Z,808.02
2023-01-22T01:10:11.033Z,808.05
2023-01-22T01:11:11.045Z,808.05
2023-01-22T01:12:11.029Z,808.02
2023-01-22T01:13:11.145Z,808.05
2023-01-22T01:14:11.020Z,808.06
2023-01-22T01:15:11.021Z,808.07
2023-01-22T01:16:11.118Z,808.06
2023-01-22T01:17:11.017Z,808.13
2023-01-22T01:18:11.007Z,808.15
2023-01-22T01:19:11.005Z,808.12
2023-01-22T01:20:11.021Z,808.10
2023-01-22T01:21:10.999Z,808.11
2023-01-22T01:22:10.992Z,808.11
2023-01-22T01:23:11.009Z,808.15
2023-01-22T01:24:10.991Z,808.14
2023-01-22T01:25:10.993Z,808.16
2023-01-22T01:26:10.979Z,808.13
2023-01-22T01:27:10.989Z,808.13
2023-01-22T01:28:10.971Z,808.13
2023-01-22T01:29:11.087Z,808.18
2023-01-22T01:30:10.963Z,808.13
2023-01-22T01:31:11.137Z,808.19
2023-01-22T01:32:10.964Z,808.20
2023-01-22T01:33:10.956Z,808.19
2023-01-22T01:34:10.956Z,808.21
2023-01-22T01:35:10.948Z,808.21
2023-01-22T01:36:10.942Z,808.20
2023-01-22T01:37:10.943Z,808.18
2023-01-22T01:38:10.934Z,808.21
2023-01-22T01:39:10.940Z,808.18
2023-01-22T01:40:10.938Z,808.18
2023-01-22T01:41:10.929Z,808.18
2023-01-22T01:42:10.922Z,808.18
2023-01-22T01:43:10.922Z,808.18
2023-01-22T01:44:10.921Z,808.17
2023-01-22T01:45:11.035Z,808.17
2023-01-22T01:46:10.907Z,808.17
2023-01-22T01:47:10.906Z,808.20
2023-01-22T01:48:10.903Z,808.19
2023-01-22T01:49:10.914Z,808.22
2023-01-22T01:50:10.894Z,808.19
2023-01-22T01:51:10.924Z,808.19
2023-01-22T01:52:10.892Z,808.22
2023-01-22T01:53:10.885Z,808.21
2023-01-22T01:54:10.881Z,808.19
2023-01-22T01:55:10.879Z,808.19
2023-01-22T01:56:10.872Z,808.18
2023-01-22T01:57:10.880Z,808.19
2023-01-22T01:58:10.865Z,808.17
2023-01-22T01:59:10.868Z,808.16
2023-01-22T02:00:10.859Z,808.17
2023-01-22T02:01:11.041Z,808.20
2023-01-22T02:02:10.880Z,808.22
2023-01-22T02:03:10.852Z,808.22
2023-01-22T02:04:10.845Z,808.20
2023-01-22T02:05:10.871Z,808.24
2023-01-22T02:06:10.838Z,808.22
2023-01-22T02:07:10.840Z,808.20
2023-01-22T02:08:10.832Z,808.21
2023-01-22T02:09:10.836Z,808.19
2023-01-22T02:10:10.823Z,808.19
2023-01-22T02:11:10.831Z,808.17
2023-01-22T02:12:10.817Z,808.21
2023-01-22T02:13:10.820Z,808.17
2023-01-22T02:14:10.810Z,808.15
2023-01-22T02:15:10.875Z,808.18
2023-01-22T02:16:10.838Z,808.17
2023-01-22T02:17:10.914Z,808.17
2023-01-22T02:18:10.796Z,808.18
2023-01-22T02:19:10.799Z,808.19
2023-01-22T02:20:10.790Z,808.18
2023-01-22T02:21:10.794Z,808.15
2023-01-22T02:22:10.783Z,808.19
2023-01-22T02:23:10.787Z,808.17
2023-01-22T02:24:10.782Z,808.18
2023-01-22T02:25:10.775Z,808.16
2023-01-22T02:26:10.768Z,808.19
2023-01-22T02:27:10.770Z,808.14
2023-01-22T02:28:10.761Z,808.17
2023-01-22T02:29:10.777Z,808.13
2023-01-22T02:30:10.762Z,808.15
2023-01-22T02:31:11.003Z,808.11
2023-01-22T02:32:10.761Z,808.14
2023-01-22T02:33:10.857Z,808.18
2023-01-22T02:34:10.741Z,808.17
2023-01-22T02:35:10.752Z,808.17
2023-01-22T02:36:10.733Z,808.18
2023-01-22T02:37:10.741Z,808.13
2023-01-22T02:38:10.732Z,808.18
2023-01-22T02:39:10.728Z,808.15
2023-01-22T02:40:10.723Z,808.12
2023-01-22T02:41:10.718Z,808.13
2023-01-22T02:42:10.727Z,808.08
2023-01-22T02:43:10.713Z,808.13
2023-01-22T02:44:10.705Z,808.16
2023-01-22T02:45:10.711Z,808.14
2023-01-22T02:46:10.699Z,808.15
2023-01-22T02:47:10.700Z,808.15
2023-01-22T02:48:10.693Z,808.15
2023-01-22T02:49:10.808Z,808.12
2023-01-22T02:50:10.683Z,808.16
2023-01-22T02:51:10.737Z,808.11
2023-01-22T02:52:10.687Z,808.12
2023-01-22T02:53:10.680Z,808.09
2023-01-22T02:54:10.669Z,808.06
2023-01-22T02:55:10.675Z,808.04
2023-01-22T02:56:10.677Z,808.09
2023-01-22T02:57:10.663Z,808.09
2023-01-22T02:58:10.658Z,808.09
2023-01-22T02:59:10.652Z,808.09
2023-01-22T03:00:10.669Z,808.12
2023-01-22T03:01:10.708Z,808.13
2023-01-22T03:02:10.726Z,808.13
2023-01-22T03:03:10.645Z,808.08
2023-01-22T03:04:10.653Z,808.07
2023-01-22T03:05:10.753Z,808.02
2023-01-22T03:06:10.640Z,807.99
2023-01-22T03:07:10.632Z,807.98
2023-01-22T03:08:10.628Z,808.08
2023-01-22T03:09:10.613Z,808.09
2023-01-22T03:10:10.626Z,808.05
2023-01-22T03:11:10.613Z,808.03
2023-01-22T03:12:10.604Z,808.01
2023-01-22T03:13:10.605Z,808.03
2023-01-22T03:14:10.600Z,808.06
2023-01-22T03:15:10.606Z,808.09
2023-01-22T03:16:10.667Z,808.09
2023-01-22T03:17:10.584Z,808.00
2023-01-22T03:18:10.580Z,808.01
2023-01-22T03:19:10.576Z,808.06
2023-01-22T03:20:10.573Z,808.07
2023-01-22T03:21:10.685Z,808.07
2023-01-22T03:22:10.561Z,808.07
2023-01-22T03:23:10.565Z,808.09
2023-01-22T03:24:10.553Z,808.07
2023-01-22T03:25:10.552Z,808.08
2023-01-22T03:26:10.547Z,808.08
2023-01-22T03:27:10.550Z,808.07
2023-01-22T03:28:10.539Z,808.09
2023-01-22T03:29:10.544Z,808.03
2023-01-22T03:30:10.539Z,808.06
2023-01-22T03:31:10.605Z,808.05
2023-01-22T03:32:10.558Z,808.07
2023-01-22T03:33:10.518Z,808.07
2023-01-22T03:34:10.519Z,808.08
2023-01-22T03:35:10.515Z,808.05
2023-01-22T03:36:10.513Z,808.08
2023-01-22T03:37:10.623Z,808.06
2023-01-22T03:38:10.496Z,808.10
2023-01-22T03:39:10.493Z,808.10
2023-01-22T03:40:10.496Z,808.09
2023-01-22T03:41:10.492Z,808.11
2023-01-22T03:42:10.580Z,808.11
2023-01-22T03:43:10.481Z,808.11
2023-01-22T03:44:10.473Z,808.09
2023-01-22T03:45:10.469Z,808.10
2023-01-22T03:46:10.501Z,808.06
2023-01-22T03:47:10.462Z,808.09
2023-01-22T03:48:10.455Z,808.08
2023-01-22T03:49:10.456Z,808.07
2023-01-22T03:50:10.448Z,808.11
2023-01-22T03:51:10.483Z,808.08
2023-01-22T03:52:10.437Z,808.07
2023-01-22T03:53:10.557Z,808.12
2023-01-22T03:54:10.431Z,808.10
2023-01-22T03:55:10.426Z,808.10
2023-01-22T03:56:10.427Z,808.16
2023-01-22T03:57:10.430Z,808.12
2023-01-22T03:58:10.410Z,808.12
2023-01-22T03:59:10.408Z,808.16
2023-01-22T04:00:10.401Z,808.20
2023-01-22T04:01:10.499Z,808.18
2023-01-22T04:02:10.436Z,808.20
2023-01-22T04:03:10.393Z,808.21
2023-01-22T04:04:10.390Z,808.18
2023-01-22T04:05:10.380Z,808.17
2023-01-22T04:06:10.374Z,808.16
2023-01-22T04:07:10.380Z,808.14
2023-01-22T04:08:10.379Z,808.14
2023-01-22T04:09:10.481Z,808.19
2023-01-22T04:10:10.371Z,808.20
2023-01-22T04:11:10.356Z,808.16
2023-01-22T04:12:10.345Z,808.20
2023-01-22T04:13:10.345Z,808.24
2023-01-22T04:14:10.336Z,808.23
2023-01-22T04:15:10.336Z,808.28
2023-01-22T04:16:10.372Z,808.26
2023-01-22T04:17:10.344Z,808.25
2023-01-22T04:18:10.321Z,808.28
2023-01-22T04:19:10.323Z,808.26
2023-01-22T04:20:10.313Z,808.30
2023-01-22T04:21:10.362Z,808.24
2023-01-22T04:22:10.321Z,808.25
2023-01-22T04:23:10.304Z,808.27
2023-01-22T04:24:10.291Z,808.32
2023-01-22T04:25:10.411Z,808.36
2023-01-22T04:26:10.283Z,808.33
2023-01-22T04:27:10.292Z,808.38
2023-01-22T04:28:10.275Z,808.39
2023-01-22T04:29:10.273Z,808.36
2023-01-22T04:30:10.279Z,808.37
2023-01-22T04:31:10.406Z,808.36
2023-01-22T04:32:10.256Z,808.37
2023-01-22T04:33:10.254Z,808.40
2023-01-22T04:34:10.244Z,808.38
2023-01-22T04:35:10.245Z,808.40
2023-01-22T04:36:10.238Z,808.42
2023-01-22T04:37:10.239Z,808.44
2023-01-22T04:38:10.226Z,808.46
2023-01-22T04:39:10.235Z,808.44
2023-01-22T04:40:10.218Z,808.43
2023-01-22T04:41:10.331Z,808.43
2023-01-22T04:42:10.208Z,808.46
2023-01-22T04:43:10.205Z,808.46
2023-01-22T04:44:10.206Z,808.43
2023-01-22T04:45:10.194Z,808.46
2023-01-22T04:46:10.213Z,808.47
2023-01-22T04:47:10.187Z,808.50
2023-01-22T04:48:10.180Z,808.51
2023-01-22T04:49:10.194Z,808.50
2023-01-22T04:50:10.177Z,808.52
2023-01-22T04:51:10.236Z,808.48
2023-01-22T04:52:10.162Z,808.51
2023-01-22T04:53:10.161Z,808.48
2023-01-22T04:54:10.153Z,808.51
2023-01-22T04:55:10.156Z,808.50
2023-01-22T04:56:10.143Z,808.54
2023-01-22T04:57:10.258Z,808.53
2023-01-22T04:58:10.132Z,808.55
2023-01-22T04:59:10.132Z,808.55
2023-01-22T05:00:10.130Z,808.55
2023-01-22T05:01:10.201Z,808.58
2023-01-22T05:02:10.160Z,808.58
2023-01-22T05:03:10.117Z,808.65
2023-01-22T05:04:10.117Z,808.59
2023-01-22T05:05:10.109Z,808.63
2023-01-22T05:06:10.105Z,808.56
2023-01-22T05:07:10.093Z,808.60
2023-01-22T05:08:10.103Z,808.62
2023-01-22T05:09:10.099Z,808.63
2023-01-22T05:10:10.089Z,808.65
2023-01-22T05:11:10.079Z,808.68
2023-01-22T05:12:10.081Z,808.64
2023-01-22T05:13:10.177Z,808.64
2023-01-22T05:14:10.607Z,808.68
2023-01-22T05:15:23.027Z,808.68
2023-01-22T05:16:10.135Z,808.69
2023-01-22T05:17:10.046Z,808.70
2023-01-22T05:18:10.062Z,808.69
2023-01-22T05:19:10.077Z,808.68
2023-01-22T05:20:10.059Z,808.70
2023-01-22T05:21:10.040Z,808.71
2023-01-22T05:22:10.031Z,808.73
2023-01-22T05:23:10.030Z,808.76
2023-01-22T05:24:10.039Z,808.67
2023-01-22T05:25:10.015Z,808.67
2023-01-22T05:26:10.042Z,808.69
2023-01-22T05:27:10.012Z,808.70
2023-01-22T05:28:10.011Z,808.72
2023-01-22T05:29:10.114Z,808.68
2023-01-22T05:30:09.995Z,808.71
2023-01-22T05:31:10.155Z,808.72
2023-01-22T05:32:09.986Z,808.72
2023-01-22T05:33:11.478Z,808.73
2023-01-22T05:34:09.976Z,808.75
2023-01-22T05:35:09.970Z,808.77
2023-01-22T05:36:09.970Z,808.76
2023-01-22T05:37:09.960Z,808.76
2023-01-22T05:38:09.959Z,808.71
2023-01-22T05:39:09.957Z,808.73
2023-01-22T05:40:09.974Z,808.73
2023-01-22T05:41:09.943Z,808.72
2023-01-22T05:42:09.943Z,808.76
2023-01-22T05:43:09.936Z,808.78
2023-01-22T05:44:09.934Z,808.80
2023-01-22T05:45:10.048Z,808.80
2023-01-22T05:46:10.029Z,808.80
2023-01-22T05:47:09.930Z,808.76
2023-01-22T05:48:09.914Z,808.80
2023-01-22T05:49:09.912Z,808.78
2023-01-22T05:50:09.925Z,808.78
2023-01-22T05:51:09.987Z,808.81
2023-01-22T05:52:09.901Z,808.78
2023-01-22T05:53:09.891Z,808.80
2023-01-22T05:54:09.963Z,808.76
2023-01-22T05:55:09.891Z,808.85
2023-01-22T05:56:09.883Z,808.88
2023-01-22T05:57:09.884Z,808.86
2023-01-22T05:58:09.874Z,808.86
2023-01-22T05:59:09.870Z,808.84
2023-01-22T06:00:09.866Z,808.89
2023-01-22T06:01:09.973Z,808.91
2023-01-22T06:02:10.034Z,808.89
2023-01-22T06:03:09.852Z,808.92
2023-01-22T06:04:09.853Z,808.89
2023-01-22T06:05:09.879Z,808.91
2023-01-22T06:06:09.850Z,808.91
2023-01-22T06:07:09.834Z,808.89
2023-01-22T06:08:09.837Z,808.89
2023-01-22T06:09:09.827Z,808.96
2023-01-22T06:10:09.837Z,808.99
2023-01-22T06:11:09.818Z,808.96
2023-01-22T06:12:09.821Z,808.96
2023-01-22T06:13:09.926Z,808.98
2023-01-22T06:14:09.811Z,808.99
2023-01-22T06:15:09.803Z,808.95
2023-01-22T06:16:09.867Z,808.96
2023-01-22T06:17:09.906Z,809.01
2023-01-22T06:18:09.792Z,808.96
2023-01-22T06:19:09.795Z,808.92
2023-01-22T06:20:09.785Z,808.93
2023-01-22T06:21:09.777Z,808.93
2023-01-22T06:22:09.773Z,808.96
2023-01-22T06:23:09.768Z,808.94
2023-01-22T06:24:09.768Z,808.97
2023-01-22T06:25:09.761Z,808.94
2023-01-22T06:26:09.768Z,808.94
2023-01-22T06:27:09.749Z,808.93
2023-01-22T06:28:09.750Z,808.93
2023-01-22T06:29:09.756Z,808.91
2023-01-22T06:30:09.739Z,808.91
2023-01-22T06:31:09.862Z,808.95
2023-01-22T06:32:09.733Z,808.99
2023-01-22T06:33:09.839Z,808.98
2023-01-22T06:34:09.758Z,808.93
2023-01-22T06:35:09.722Z,808.97
2023-01-22T06:36:09.719Z,808.92
2023-01-22T06:37:09.708Z,808.90
2023-01-22T06:38:09.731Z,808.92
2023-01-22T06:39:09.699Z,808.97
2023-01-22T06:40:09.705Z,808.99
2023-01-22T06:41:09.707Z,808.98
2023-01-22T06:42:09.697Z,809.02
2023-01-22T06:43:10.725Z,809.04
2023-01-22T06:44:09.682Z,808.99
2023-01-22T06:45:09.674Z,808.98
2023-01-22T06:46:09.730Z,808.91
2023-01-22T06:47:09.673Z,808.98
2023-01-22T06:48:09.668Z,808.98
2023-01-22T06:49:09.778Z,809.00
2023-01-22T06:50:09.665Z,809.03
2023-01-22T06:51:09.671Z,809.00
2023-01-22T06:52:09.669Z,809.03
2023-01-22T06:53:09.657Z,809.05
2023-01-22T06:54:09.643Z,809.02
2023-01-22T06:55:09.633Z,809.03
2023-01-22T06:56:09.640Z,809.03
2023-01-22T06:57:09.631Z,809.08
2023-01-22T06:58:09.668Z,809.07
2023-01-22T06:59:09.629Z,809.10
2023-01-22T07:00:09.623Z,809.06
2023-01-22T07:01:09.609Z,809.10
2023-01-22T07:02:09.619Z,809.09
2023-01-22T07:03:09.608Z,809.07
2023-01-22T07:04:09.608Z,809.08
2023-01-22T07:05:09.713Z,809.09
2023-01-22T07:06:09.603Z,809.12
2023-01-22T07:07:09.604Z,809.16
2023-01-22T07:08:09.591Z,809.14
2023-01-22T07:09:09.591Z,809.13
2023-01-22T07:10:09.583Z,809.18
2023-01-22T07:11:09.604Z,809.16
2023-01-22T07:12:09.577Z,809.14
2023-01-22T07:13:09.567Z,809.15
2023-01-22T07:14:09.571Z,809.14
2023-01-22T07:15:09.556Z,809.14
2023-01-22T07:16:09.616Z,809.17
2023-01-22T07:17:09.568Z,809.17
2023-01-22T07:18:09.548Z,809.17
2023-01-22T07:19:09.642Z,809.20
2023-01-22T07:20:09.547Z,809.16
2023-01-22T07:21:09.646Z,809.15
2023-01-22T07:22:09.530Z,809.19
2023-01-22T07:23:09.519Z,809.21
2023-01-22T07:24:09.522Z,809.21
2023-01-22T07:25:09.527Z,809.22
2023-01-22T07:26:09.516Z,809.20
2023-01-22T07:27:09.510Z,809.20
2023-01-22T07:28:09.506Z,809.21
2023-01-22T07:29:09.502Z,809.23
2023-01-22T07:30:09.507Z,809.26
2023-01-22T07:31:09.631Z,809.24
2023-01-22T07:32:09.491Z,809.27
2023-01-22T07:33:09.483Z,809.29
2023-01-22T07:34:09.483Z,809.32
2023-01-22T07:35:09.468Z,809.32
2023-01-22T07:36:09.471Z,809.35
2023-01-22T07:37:09.594Z,809.33
2023-01-22T07:38:09.460Z,809.37
2023-01-22T07:39:09.453Z,809.39
2023-01-22T07:40:09.454Z,809.39
2023-01-22T07:41:24.506Z,809.41
2023-01-22T07:42:09.448Z,809.42
2023-01-22T07:43:09.439Z,809.43
2023-01-22T07:44:09.437Z,809.38
2023-01-22T07:45:09.435Z,809.39
2023-01-22T07:46:09.498Z,809.42
2023-01-22T07:47:09.421Z,809.47
2023-01-22T07:48:09.424Z,809.48
2023-01-22T07:49:09.413Z,809.48
2023-01-22T07:50:09.410Z,809.49
2023-01-22T07:51:09.454Z,809.53
2023-01-22T07:52:09.414Z,809.52
2023-01-22T07:53:09.517Z,809.54
2023-01-22T07:54:09.392Z,809.52
2023-01-22T07:55:09.387Z,809.56
2023-01-22T07:56:09.389Z,809.54
2023-01-22T07:57:09.378Z,809.55
2023-01-22T07:58:09.388Z,809.55
2023-01-22T07:59:09.371Z,809.58
2023-01-22T08:00:09.371Z,809.57
2023-01-22T08:01:09.446Z,809.59
2023-01-22T08:02:09.418Z,809.55
2023-01-22T08:03:09.355Z,809.61
2023-01-22T08:04:09.357Z,809.61
2023-01-22T08:05:09.345Z,809.62
2023-01-22T08:06:09.349Z,809.58
2023-01-22T08:07:09.356Z,809.59
2023-01-22T08:08:09.337Z,809.61
2023-01-22T08:09:09.451Z,809.61
2023-01-22T08:10:09.333Z,809.58
2023-01-22T08:11:09.328Z,809.60
2023-01-22T08:12:09.322Z,809.62
2023-01-22T08:13:09.313Z,809.65
2023-01-22T08:14:09.315Z,809.60
2023-01-22T08:15:09.307Z,809.61
2023-01-22T08:16:09.549Z,809.65
2023-01-22T08:17:09.300Z,809.60
2023-01-22T08:18:09.300Z,809.64
2023-01-22T08:19:09.295Z,809.63
2023-01-22T08:20:09.293Z,809.65
2023-01-22T08:21:09.292Z,809.70
2023-01-22T08:22:09.285Z,809.74
2023-01-22T08:23:09.275Z,809.75
2023-01-22T08:24:09.289Z,809.76
2023-01-22T08:25:09.403Z,809.81
2023-01-22T08:26:09.285Z,809.83
2023-01-22T08:27:09.272Z,809.81
2023-01-22T08:28:09.261Z,809.87
2023-01-22T08:29:09.258Z,809.86
2023-01-22T08:30:09.255Z,809.90
2023-01-22T08:31:16.481Z,809.90
2023-01-22T08:32:09.418Z,809.94
2023-01-22T08:33:09.238Z,809.94
2023-01-22T08:34:09.238Z,809.96
2023-01-22T08:35:09.230Z,809.97
2023-01-22T08:36:09.234Z,809.93
2023-01-22T08:37:09.222Z,809.95
2023-01-22T08:38:09.221Z,809.95
2023-01-22T08:39:09.218Z,809.95
2023-01-22T08:40:09.215Z,809.99
2023-01-22T08:41:09.373Z,809.99
2023-01-22T08:42:09.210Z,810.03
2023-01-22T08:43:09.199Z,810.00
2023-01-22T08:44:09.202Z,810.03
2023-01-22T08:45:09.196Z,810.04
2023-01-22T08:46:09.225Z,810.03
2023-01-22T08:47:09.191Z,810.06
2023-01-22T08:48:09.206Z,809.99
2023-01-22T08:49:09.182Z,810.02
2023-01-22T08:50:09.262Z,810.00
2023-01-22T08:51:09.261Z,810.06
2023-01-22T08:52:09.197Z,810.05
2023-01-22T08:53:09.176Z,810.05
2023-01-22T08:54:09.166Z,810.05
2023-01-22T08:55:09.164Z,810.05
2023-01-22T08:56:09.162Z,810.01
2023-01-22T08:57:09.265Z,810.01
2023-01-22T08:58:09.150Z,810.06
2023-01-22T08:59:09.153Z,810.04
2023-01-22T09:00:09.144Z,810.03
2023-01-22T09:01:09.202Z,810.07
2023-01-22T09:02:09.192Z,810.11
2023-01-22T09:03:09.131Z,810.12
2023-01-22T09:04:09.187Z,810.11
2023-01-22T09:05:09.124Z,810.12
2023-01-22T09:06:09.126Z,810.12
2023-01-22T09:07:09.119Z,810.09
2023-01-22T09:08:09.122Z,810.09
2023-01-22T09:09:09.114Z,810.05
2023-01-22T09:10:09.113Z,810.08
2023-01-22T09:11:09.108Z,810.09
2023-01-22T09:12:09.112Z,810.14
2023-01-22T09:13:09.211Z,810.11
2023-01-22T09:14:09.099Z,810.14
2023-01-22T09:15:09.102Z,810.15
2023-01-22T09:16:09.160Z,810.08
2023-01-22T09:17:09.099Z,810.12
2023-01-22T09:18:09.093Z,810.13
2023-01-22T09:19:09.081Z,810.15
2023-01-22T09:20:09.092Z,810.14
2023-01-22T09:21:09.096Z,810.16
2023-01-22T09:22:09.091Z,810.14
2023-01-22T09:23:09.082Z,810.18
2023-01-22T09:24:09.077Z,810.21
2023-01-22T09:25:09.068Z,810.23
2023-01-22T09:26:09.066Z,810.26
2023-01-22T09:27:09.064Z,810.21
2023-01-22T09:28:09.061Z,810.26
2023-01-22T09:29:09.180Z,810.24
2023-01-22T09:30:09.056Z,810.24
2023-01-22T09:31:09.105Z,810.25
2023-01-22T09:32:09.054Z,810.23
2023-01-22T09:33:09.056Z,810.25
2023-01-22T09:34:09.061Z,810.30
2023-01-22T09:35:09.043Z,810.30
2023-01-22T09:36:09.140Z,810.27
2023-01-22T09:37:09.036Z,810.28
2023-01-22T09:38:09.034Z,810.31
2023-01-22T09:39:09.031Z,810.32
2023-01-22T09:40:09.030Z,810.31
2023-01-22T09:41:09.033Z,810.29
2023-01-22T09:42:09.026Z,810.29
2023-01-22T09:43:09.027Z,810.31
2023-01-22T09:44:09.019Z,810.33
2023-01-22T09:45:09.140Z,810.34
2023-01-22T09:46:09.050Z,810.31
2023-01-22T09:47:09.012Z,810.34
2023-01-22T09:48:09.009Z,810.34
2023-01-22T09:49:09.010Z,810.41
2023-01-22T09:50:09.009Z,810.36
2023-01-22T09:51:09.030Z,810.36
2023-01-22T09:52:08.999Z,810.38
2023-01-22T09:53:08.998Z,810.40
2023-01-22T09:54:08.999Z,810.36
2023-01-22T09:55:09.001Z,810.38
2023-01-22T09:56:08.992Z,810.39
2023-01-22T09:57:09.563Z,810.37
2023-01-22T09:58:08.985Z,810.38
2023-01-22T09:59:09.003Z,810.40
2023-01-22T10:00:08.988Z,810.39
2023-01-22T10:01:09.161Z,810.40
2023-01-22T10:02:09.015Z,810.40
2023-01-22T10:03:08.977Z,810.36
2023-01-22T10:04:08.977Z,810.35
2023-01-22T10:05:08.973Z,810.37
2023-01-22T10:06:08.968Z,810.41
2023-01-22T10:07:08.974Z,810.40
2023-01-22T10:08:08.966Z,810.44
2023-01-22T10:09:08.973Z,810.43
2023-01-22T10:10:08.961Z,810.41
2023-01-22T10:11:08.962Z,810.38
2023-01-22T10:12:08.957Z,810.38
2023-01-22T10:13:08.955Z,810.36
2023-01-22T10:14:08.963Z,810.38
2023-01-22T10:15:08.956Z,810.41
2023-01-22T10:16:08.953Z,810.39
2023-01-22T10:17:09.069Z,810.39
2023-01-22T10:18:08.951Z,810.42
2023-01-22T10:19:08.952Z,810.38
2023-01-22T10:20:08.945Z,810.41
2023-01-22T10:21:08.946Z,810.45
2023-01-22T10:22:08.940Z,810.44
2023-01-22T10:23:08.945Z,810.43
2023-01-22T10:24:08.945Z,810.45
2023-01-22T10:25:08.942Z,810.42
2023-01-22T10:26:08.936Z,810.45
2023-01-22T10:27:08.942Z,810.47
2023-01-22T10:28:08.937Z,810.46
2023-01-22T10:29:08.963Z,810.44
2023-01-22T10:30:08.942Z,810.46
2023-01-22T10:31:09.041Z,810.45
2023-01-22T10:32:08.930Z,810.46
2023-01-22T10:33:09.052Z,810.47
2023-01-22T10:34:08.928Z,810.43
2023-01-22T10:35:08.933Z,810.47
2023-01-22T10:36:08.926Z,810.49
2023-01-22T10:37:08.928Z,810.50
2023-01-22T10:38:08.927Z,810.52
2023-01-22T10:39:08.930Z,810.55
2023-01-22T10:40:08.925Z,810.46
2023-01-22T10:41:08.923Z,810.48
2023-01-22T10:42:08.920Z,810.47
2023-01-22T10:43:08.926Z,810.47
2023-01-22T10:44:08.932Z,810.49
2023-01-22T10:45:08.923Z,810.51
2023-01-22T10:46:09.003Z,810.52
2023-01-22T10:47:08.927Z,810.51
2023-01-22T10:48:08.922Z,810.45
2023-01-22T10:49:09.043Z,810.45
2023-01-22T10:50:08.929Z,810.44
2023-01-22T10:51:08.967Z,810.44
2023-01-22T10:52:08.923Z,810.42
2023-01-22T10:53:08.920Z,810.43
2023-01-22T10:54:08.924Z,810.41
2023-01-22T10:55:08.923Z,810.41
2023-01-22T10:56:10.373Z,810.43
2023-01-22T10:57:08.925Z,810.46
2023-01-22T10:58:08.917Z,810.40
2023-01-22T10:59:08.928Z,810.43
2023-01-22T11:00:08.929Z,810.39
2023-01-22T11:01:08.940Z,810.42
2023-01-22T11:02:08.974Z,810.44
2023-01-22T11:03:08.935Z,810.45
2023-01-22T11:04:08.919Z,810.46
2023-01-22T11:05:09.045Z,810.43
2023-01-22T11:06:08.917Z,810.44
2023-01-22T11:07:08.932Z,810.41
2023-01-22T11:08:08.923Z,810.42
2023-01-22T11:09:08.928Z,810.50
2023-01-22T11:10:08.919Z,810.49
2023-01-22T11:11:08.923Z,810.51
2023-01-22T11:12:08.918Z,810.50
2023-01-22T11:13:08.923Z,810.44
2023-01-22T11:14:08.919Z,810.47
2023-01-22T11:15:08.923Z,810.50
2023-01-22T11:16:08.978Z,810.46
2023-01-22T11:17:08.923Z,810.51
2023-01-22T11:18:08.919Z,810.50
2023-01-22T11:19:08.924Z,810.52
2023-01-22T11:20:08.921Z,810.52
2023-01-22T11:21:09.041Z,810.57
2023-01-22T11:22:08.926Z,810.54
2023-01-22T11:23:08.925Z,810.52
2023-01-22T11:24:08.922Z,810.52
2023-01-22T11:25:08.933Z,810.52
2023-01-22T11:26:08.921Z,810.54
2023-01-22T11:27:08.928Z,810.49
2023-01-22T11:28:08.928Z,810.53
2023-01-22T11:29:08.947Z,810.51
2023-01-22T11:30:08.929Z,810.50
2023-01-22T11:31:09.077Z,810.54
2023-01-22T11:32:08.929Z,810.54
2023-01-22T11:33:08.938Z,810.54
2023-01-22T11:34:08.937Z,810.53
2023-01-22T11:35:08.941Z,810.52
2023-01-22T11:36:09.961Z,810.53
2023-01-22T11:37:09.053Z,810.53
2023-01-22T11:38:08.976Z,810.52
2023-01-22T11:39:08.938Z,810.55
2023-01-22T11:40:08.942Z,810.54
2023-01-22T11:41:08.943Z,810.55
2023-01-22T11:42:08.939Z,810.56
2023-01-22T11:43:09.226Z,810.54
2023-01-22T11:44:08.947Z,810.46
2023-01-22T11:45:08.949Z,810.49
2023-01-22T11:46:09.020Z,810.45
2023-01-22T11:47:08.950Z,810.48
2023-01-22T11:48:08.949Z,810.45
2023-01-22T11:49:08.959Z,810.42
2023-01-22T11:50:08.954Z,810.42
2023-01-22T11:51:08.983Z,810.45
2023-01-22T11:52:08.962Z,810.43
2023-01-22T11:53:09.089Z,810.43
2023-01-22T11:54:09.934Z,810.47
2023-01-22T11:55:08.967Z,810.40
2023-01-22T11:56:08.963Z,810.40
2023-01-22T11:57:09.030Z,810.49
2023-01-22T11:58:08.989Z,810.44
2023-01-22T11:59:08.975Z,810.44
2023-01-22T12:00:08.970Z,810.44
2023-01-22T12:01:08.973Z,810.47
2023-01-22T12:02:08.974Z,810.49
2023-01-22T12:03:08.982Z,810.51
2023-01-22T12:04:09.080Z,810.51
2023-01-22T12:05:08.981Z,810.50
2023-01-22T12:06:08.979Z,810.45
2023-01-22T12:07:08.994Z,810.48
2023-01-22T12:08:09.002Z,810.44
2023-01-22T12:09:09.116Z,810.46
2023-01-22T12:10:08.985Z,810.47
2023-01-22T12:11:08.989Z,810.44
2023-01-22T12:12:08.994Z,810.47
2023-01-22T12:13:08.993Z,810.46
2023-01-22T12:14:08.994Z,810.45
2023-01-22T12:15:09.000Z,810.45
2023-01-22T12:16:09.014Z,810.42
2023-01-22T12:17:09.005Z,810.45
2023-01-22T12:18:09.005Z,810.44
2023-01-22T12:19:09.010Z,810.39
2023-01-22T12:20:09.006Z,810.44
2023-01-22T12:21:09.036Z,810.43
2023-01-22T12:22:09.018Z,810.41
2023-01-22T12:23:09.022Z,810.44
2023-01-22T12:24:09.021Z,810.42
2023-01-22T12:25:09.140Z,810.46
2023-01-22T12:26:09.020Z,810.47
2023-01-22T12:27:10.212Z,810.48
2023-01-22T12:28:09.024Z,810.49